sensor_id;sensor_type;location;lat;lon;timestamp;noise_LAeq;noise_LA_min;noise_LA_max;noise_LA01;noise_LA95
64545;Laerm;50936;51.660;5.616;2023-02-15T00:02:26;49.10;40.89;64.59;;
64545;Laerm;50936;51.660;5.616;2023-02-15T00:04:53;54.28;41.68;66.96;;
64545;Laerm;50936;51.660;5.616;2023-02-15T00:07:22;46.41;40.98;61.69;;
64545;Laerm;50936;51.660;5.616;2023-02-15T00:09:49;46.23;40.62;57.04;;
64545;Laerm;50936;51.660;5.616;2023-02-15T00:12:16;44.60;40.89;53.02;;
64545;Laerm;50936;51.660;5.616;2023-02-15T00:14:43;55.37;40.98;69.11;;
64545;Laerm;50936;51.660;5.616;2023-02-15T00:17:10;48.51;41.30;62.10;;
64545;Laerm;50936;51.660;5.616;2023-02-15T00:19:37;57.25;41.61;72.96;;
64545;Laerm;50936;51.660;5.616;2023-02-15T00:22:04;45.55;40.71;55.69;;
64545;Laerm;50936;51.660;5.616;2023-02-15T00:24:32;44.12;40.80;53.82;;
64545;Laerm;50936;51.660;5.616;2023-02-15T00:26:59;51.88;40.80;68.07;;
64545;Laerm;50936;51.660;5.616;2023-02-15T00:29:26;42.93;40.80;44.94;;
64545;Laerm;50936;51.660;5.616;2023-02-15T00:31:53;43.12;40.62;48.00;;
64545;Laerm;50936;51.660;5.616;2023-02-15T00:34:26;51.80;41.06;68.39;;
64545;Laerm;50936;51.660;5.616;2023-02-15T00:36:53;42.69;40.23;45.60;;
64545;Laerm;50936;51.660;5.616;2023-02-15T00:39:21;54.80;42.09;66.50;;
64545;Laerm;50936;51.660;5.616;2023-02-15T00:41:48;48.26;40.89;61.36;;
64545;Laerm;50936;51.660;5.616;2023-02-15T00:44:17;52.95;40.33;68.82;;
64545;Laerm;50936;51.660;5.616;2023-02-15T00:46:44;42.61;40.62;48.51;;
64545;Laerm;50936;51.660;5.616;2023-02-15T00:49:11;42.60;40.43;45.14;;
64545;Laerm;50936;51.660;5.616;2023-02-15T00:51:38;42.64;40.33;44.65;;
64545;Laerm;50936;51.660;5.616;2023-02-15T00:54:06;44.98;40.89;54.89;;
64545;Laerm;50936;51.660;5.616;2023-02-15T00:56:33;52.11;40.89;63.47;;
64545;Laerm;50936;51.660;5.616;2023-02-15T00:59:00;50.21;41.30;63.73;;
64545;Laerm;50936;51.660;5.616;2023-02-15T01:01:27;43.23;40.71;49.85;;
64545;Laerm;50936;51.660;5.616;2023-02-15T01:03:54;44.07;41.14;52.41;;
64545;Laerm;50936;51.660;5.616;2023-02-15T01:06:21;43.99;40.23;51.20;;
64545;Laerm;50936;51.660;5.616;2023-02-15T01:08:48;50.97;41.30;66.26;;
64545;Laerm;50936;51.660;5.616;2023-02-15T01:11:20;43.10;41.06;47.40;;
64545;Laerm;50936;51.660;5.616;2023-02-15T01:13:56;44.31;41.30;52.38;;
64545;Laerm;50936;51.660;5.616;2023-02-15T01:16:27;53.34;40.98;69.06;;
64545;Laerm;50936;51.660;5.616;2023-02-15T01:18:55;42.57;40.71;44.23;;
64545;Laerm;50936;51.660;5.616;2023-02-15T01:21:24;49.14;40.71;62.39;;
64545;Laerm;50936;51.660;5.616;2023-02-15T01:23:51;46.55;40.89;58.73;;
64545;Laerm;50936;51.660;5.616;2023-02-15T01:26:19;51.09;41.14;66.35;;
64545;Laerm;50936;51.660;5.616;2023-02-15T01:28:46;44.19;41.68;54.82;;
64545;Laerm;50936;51.660;5.616;2023-02-15T01:31:17;56.04;41.46;69.88;;
64545;Laerm;50936;51.660;5.616;2023-02-15T01:33:46;42.97;40.98;48.18;;
64545;Laerm;50936;51.660;5.616;2023-02-15T01:36:14;43.01;41.22;47.46;;
64545;Laerm;50936;51.660;5.616;2023-02-15T01:38:41;43.51;41.14;49.27;;
64545;Laerm;50936;51.660;5.616;2023-02-15T01:41:09;42.88;40.80;45.04;;
64545;Laerm;50936;51.660;5.616;2023-02-15T01:43:58;44.67;41.03;51.76;;
64545;Laerm;50936;51.660;5.616;2023-02-15T01:46:36;43.29;40.71;47.00;;
64545;Laerm;50936;51.660;5.616;2023-02-15T01:49:15;42.72;40.43;48.93;;
64545;Laerm;50936;51.660;5.616;2023-02-15T01:51:45;49.71;40.98;66.48;;
64545;Laerm;50936;51.660;5.616;2023-02-15T01:54:24;43.22;41.06;45.42;;
64545;Laerm;50936;51.660;5.616;2023-02-15T01:57:03;49.07;40.43;64.72;;
64545;Laerm;50936;51.660;5.616;2023-02-15T01:59:33;42.98;41.22;45.80;;
64545;Laerm;50936;51.660;5.616;2023-02-15T02:02:04;43.90;41.06;50.92;;
64545;Laerm;50936;51.660;5.616;2023-02-15T02:04:53;52.77;40.33;71.11;;
64545;Laerm;50936;51.660;5.616;2023-02-15T02:07:29;44.90;40.80;60.15;;
64545;Laerm;50936;51.660;5.616;2023-02-15T02:09:59;53.86;41.38;70.23;;
64545;Laerm;50936;51.660;5.616;2023-02-15T02:12:28;50.31;40.62;69.26;;
64545;Laerm;50936;51.660;5.616;2023-02-15T02:14:56;42.94;40.62;44.47;;
64545;Laerm;50936;51.660;5.616;2023-02-15T02:23:23;44.30;41.06;55.30;;
64545;Laerm;50936;51.660;5.616;2023-02-15T02:35:27;49.49;40.79;65.95;;
64545;Laerm;50936;51.660;5.616;2023-02-15T02:38:06;43.00;41.14;45.23;;
64545;Laerm;50936;51.660;5.616;2023-02-15T02:40:52;43.02;40.89;46.71;;
64545;Laerm;50936;51.660;5.616;2023-02-15T02:46:11;44.44;40.33;54.46;;
64545;Laerm;50936;51.660;5.616;2023-02-15T02:48:40;43.42;41.14;49.11;;
64545;Laerm;50936;51.660;5.616;2023-02-15T02:51:07;43.10;41.22;44.80;;
64545;Laerm;50936;51.660;5.616;2023-02-15T02:53:34;43.22;41.30;47.12;;
64545;Laerm;50936;51.660;5.616;2023-02-15T02:56:37;44.14;40.89;54.80;;
64545;Laerm;50936;51.660;5.616;2023-02-15T02:59:18;42.91;40.71;45.94;;
64545;Laerm;50936;51.660;5.616;2023-02-15T03:02:05;42.99;40.80;49.70;;
64545;Laerm;50936;51.660;5.616;2023-02-15T03:04:45;43.31;41.06;46.48;;
64545;Laerm;50936;51.660;5.616;2023-02-15T03:07:22;51.44;41.53;65.40;;
64545;Laerm;50936;51.660;5.616;2023-02-15T03:09:52;54.24;41.38;71.42;;
64545;Laerm;50936;51.660;5.616;2023-02-15T03:12:34;43.09;40.89;49.23;;
64545;Laerm;50936;51.660;5.616;2023-02-15T03:15:19;46.32;41.26;59.77;;
64545;Laerm;50936;51.660;5.616;2023-02-15T03:17:55;46.07;41.61;57.85;;
64545;Laerm;50936;51.660;5.616;2023-02-15T03:20:30;45.62;41.96;54.07;;
64545;Laerm;50936;51.660;5.616;2023-02-15T03:23:11;53.99;41.89;80.14;;
64545;Laerm;50936;51.660;5.616;2023-02-15T03:25:44;49.54;41.61;63.31;;
64545;Laerm;50936;51.660;5.616;2023-02-15T03:28:19;47.05;41.82;70.09;;
64545;Laerm;50936;51.660;5.616;2023-02-15T03:30:55;52.94;41.82;77.48;;
64545;Laerm;50936;51.660;5.616;2023-02-15T03:33:27;44.74;42.59;51.93;;
64545;Laerm;50936;51.660;5.616;2023-02-15T03:38:59;43.09;41.14;44.27;;
64545;Laerm;50936;51.660;5.616;2023-02-15T03:41:34;43.24;41.38;46.15;;
64545;Laerm;50936;51.660;5.616;2023-02-15T03:44:17;51.18;41.89;64.48;;
64545;Laerm;50936;51.660;5.616;2023-02-15T03:46:59;44.59;42.19;49.93;;
64545;Laerm;50936;51.660;5.616;2023-02-15T03:49:43;44.09;41.53;49.47;;
64545;Laerm;50936;51.660;5.616;2023-02-15T03:52:15;44.08;41.30;51.89;;
64545;Laerm;50936;51.660;5.616;2023-02-15T03:54:44;52.86;41.61;73.87;;
64545;Laerm;50936;51.660;5.616;2023-02-15T03:57:25;54.97;42.09;69.26;;
64545;Laerm;50936;51.660;5.616;2023-02-15T04:00:19;44.80;42.09;53.32;;
64545;Laerm;50936;51.660;5.616;2023-02-15T04:03:08;52.65;42.29;66.48;;
64545;Laerm;50936;51.660;5.616;2023-02-15T04:05:37;49.32;42.22;65.67;;
64545;Laerm;50936;51.660;5.616;2023-02-15T04:08:04;54.41;42.53;74.27;;
64545;Laerm;50936;51.660;5.616;2023-02-15T04:10:31;44.54;42.41;51.31;;
64545;Laerm;50936;51.660;5.616;2023-02-15T04:13:16;46.01;42.53;53.89;;
64545;Laerm;50936;51.660;5.616;2023-02-15T04:15:43;44.81;42.59;52.24;;
64545;Laerm;50936;51.660;5.616;2023-02-15T04:18:34;52.32;42.59;69.71;;
64545;Laerm;50936;51.660;5.616;2023-02-15T04:21:21;51.75;43.19;67.89;;
64545;Laerm;50936;51.660;5.616;2023-02-15T04:24:08;50.97;43.19;69.45;;
64545;Laerm;50936;51.660;5.616;2023-02-15T04:26:54;55.28;43.14;73.51;;
64545;Laerm;50936;51.660;5.616;2023-02-15T04:29:24;54.08;43.68;67.82;;
64545;Laerm;50936;51.660;5.616;2023-02-15T04:31:53;49.80;43.49;62.20;;
64545;Laerm;50936;51.660;5.616;2023-02-15T04:34:21;50.92;43.39;68.13;;
64545;Laerm;50936;51.660;5.616;2023-02-15T04:36:48;54.08;43.49;71.46;;
64545;Laerm;50936;51.660;5.616;2023-02-15T04:39:18;52.26;43.72;64.23;;
64545;Laerm;50936;51.660;5.616;2023-02-15T04:41:46;48.12;43.63;56.20;;
64545;Laerm;50936;51.660;5.616;2023-02-15T04:44:14;51.13;43.44;64.54;;
64545;Laerm;50936;51.660;5.616;2023-02-15T04:46:41;55.90;43.86;77.77;;
64545;Laerm;50936;51.660;5.616;2023-02-15T04:49:08;52.39;43.24;68.03;;
64545;Laerm;50936;51.660;5.616;2023-02-15T04:51:36;54.92;43.44;70.47;;
64545;Laerm;50936;51.660;5.616;2023-02-15T04:54:04;57.23;44.15;72.16;;
64545;Laerm;50936;51.660;5.616;2023-02-15T04:56:30;47.52;43.39;54.49;;
64545;Laerm;50936;51.660;5.616;2023-02-15T04:58:59;52.84;43.94;67.68;;
64545;Laerm;50936;51.660;5.616;2023-02-15T05:01:26;48.75;43.58;67.69;;
64545;Laerm;50936;51.660;5.616;2023-02-15T05:03:53;51.98;43.81;64.96;;
64545;Laerm;50936;51.660;5.616;2023-02-15T05:06:20;52.64;43.99;73.17;;
64545;Laerm;50936;51.660;5.616;2023-02-15T05:08:47;54.13;44.80;65.96;;
64545;Laerm;50936;51.660;5.616;2023-02-15T05:11:14;57.27;45.59;71.00;;
64545;Laerm;50936;51.660;5.616;2023-02-15T05:13:41;49.02;44.43;56.48;;
64545;Laerm;50936;51.660;5.616;2023-02-15T05:16:08;58.62;44.54;71.90;;
64545;Laerm;50936;51.660;5.616;2023-02-15T05:18:35;59.87;45.07;72.03;;
64545;Laerm;50936;51.660;5.616;2023-02-15T05:21:02;54.87;44.83;67.36;;
64545;Laerm;50936;51.660;5.616;2023-02-15T05:23:29;59.72;46.33;69.58;;
64545;Laerm;50936;51.660;5.616;2023-02-15T05:28:41;52.25;44.80;66.00;;
64545;Laerm;50936;51.660;5.616;2023-02-15T05:31:18;56.12;45.45;68.17;;
64545;Laerm;50936;51.660;5.616;2023-02-15T05:33:46;60.27;45.83;72.57;;
64545;Laerm;50936;51.660;5.616;2023-02-15T05:36:13;59.43;45.54;73.74;;
64545;Laerm;50936;51.660;5.616;2023-02-15T05:38:42;59.93;45.57;74.05;;
64545;Laerm;50936;51.660;5.616;2023-02-15T05:41:10;55.99;45.88;69.50;;
64545;Laerm;50936;51.660;5.616;2023-02-15T05:43:38;59.75;45.57;71.54;;
64545;Laerm;50936;51.660;5.616;2023-02-15T05:46:06;54.09;45.91;67.52;;
64545;Laerm;50936;51.660;5.616;2023-02-15T05:48:34;60.19;48.34;70.05;;
64545;Laerm;50936;51.660;5.616;2023-02-15T05:51:10;60.11;48.39;70.07;;
64545;Laerm;50936;51.660;5.616;2023-02-15T05:53:40;61.28;50.61;72.07;;
64545;Laerm;50936;51.660;5.616;2023-02-15T05:56:11;61.88;46.91;73.48;;
64545;Laerm;50936;51.660;5.616;2023-02-15T05:58:40;54.41;46.07;66.89;;
64545;Laerm;50936;51.660;5.616;2023-02-15T06:01:14;59.74;47.18;74.41;;
64545;Laerm;50936;51.660;5.616;2023-02-15T06:03:41;59.22;45.63;70.14;;
64545;Laerm;50936;51.660;5.616;2023-02-15T06:06:09;62.36;48.03;71.76;;
64545;Laerm;50936;51.660;5.616;2023-02-15T06:08:37;59.69;48.05;72.81;;
64545;Laerm;50936;51.660;5.616;2023-02-15T06:11:05;59.69;46.38;80.94;;
64545;Laerm;50936;51.660;5.616;2023-02-15T06:13:34;60.55;47.14;71.63;;
64545;Laerm;50936;51.660;5.616;2023-02-15T06:16:06;59.47;47.84;71.45;;
64545;Laerm;50936;51.660;5.616;2023-02-15T06:18:34;63.03;49.77;80.03;;
64545;Laerm;50936;51.660;5.616;2023-02-15T06:21:01;58.40;48.58;69.00;;
64545;Laerm;50936;51.660;5.616;2023-02-15T06:23:27;62.67;49.15;70.11;;
64545;Laerm;50936;51.660;5.616;2023-02-15T06:25:55;62.24;46.45;71.90;;
64545;Laerm;50936;51.660;5.616;2023-02-15T06:28:22;63.30;48.08;75.49;;
64545;Laerm;50936;51.660;5.616;2023-02-15T06:30:49;63.85;48.87;73.66;;
64545;Laerm;50936;51.660;5.616;2023-02-15T06:33:16;62.99;50.79;73.91;;
64545;Laerm;50936;51.660;5.616;2023-02-15T06:35:42;64.25;49.74;77.44;;
64545;Laerm;50936;51.660;5.616;2023-02-15T06:38:09;63.24;48.90;78.38;;
64545;Laerm;50936;51.660;5.616;2023-02-15T06:40:36;61.53;51.09;72.57;;
64545;Laerm;50936;51.660;5.616;2023-02-15T06:43:03;62.05;50.22;71.91;;
64545;Laerm;50936;51.660;5.616;2023-02-15T06:45:30;61.41;49.16;78.55;;
64545;Laerm;50936;51.660;5.616;2023-02-15T06:47:57;62.15;51.25;73.52;;
64545;Laerm;50936;51.660;5.616;2023-02-15T06:50:24;67.61;55.00;84.94;;
64545;Laerm;50936;51.660;5.616;2023-02-15T06:52:58;64.36;51.48;81.92;;
64545;Laerm;50936;51.660;5.616;2023-02-15T06:55:25;64.64;54.25;79.31;;
64545;Laerm;50936;51.660;5.616;2023-02-15T06:57:52;64.75;53.71;84.44;;
64545;Laerm;50936;51.660;5.616;2023-02-15T07:00:19;62.11;48.91;74.82;;
64545;Laerm;50936;51.660;5.616;2023-02-15T07:02:54;66.19;50.34;85.41;;
64545;Laerm;50936;51.660;5.616;2023-02-15T07:05:23;64.37;50.98;75.17;;
64545;Laerm;50936;51.660;5.616;2023-02-15T07:07:50;61.21;50.26;70.25;;
64545;Laerm;50936;51.660;5.616;2023-02-15T07:10:17;63.36;51.15;75.34;;
64545;Laerm;50936;51.660;5.616;2023-02-15T07:12:44;60.80;52.83;70.30;;
64545;Laerm;50936;51.660;5.616;2023-02-15T07:15:17;64.08;50.38;80.72;;
64545;Laerm;50936;51.660;5.616;2023-02-15T07:17:44;62.64;52.33;75.36;;
64545;Laerm;50936;51.660;5.616;2023-02-15T07:20:16;63.55;51.73;72.75;;
64545;Laerm;50936;51.660;5.616;2023-02-15T07:22:44;64.21;52.81;73.88;;
64545;Laerm;50936;51.660;5.616;2023-02-15T07:25:13;64.78;54.89;78.60;;
64545;Laerm;50936;51.660;5.616;2023-02-15T07:27:43;64.76;52.51;73.93;;
64545;Laerm;50936;51.660;5.616;2023-02-15T07:30:16;63.96;54.06;79.41;;
64545;Laerm;50936;51.660;5.616;2023-02-15T07:32:44;64.45;52.17;71.90;;
64545;Laerm;50936;51.660;5.616;2023-02-15T07:35:32;65.45;53.21;80.44;;
64545;Laerm;50936;51.660;5.616;2023-02-15T07:38:00;62.43;53.74;75.02;;
64545;Laerm;50936;51.660;5.616;2023-02-15T07:40:27;64.30;54.65;73.51;;
64545;Laerm;50936;51.660;5.616;2023-02-15T07:42:58;63.94;53.22;79.00;;
64545;Laerm;50936;51.660;5.616;2023-02-15T07:45:25;66.19;54.97;81.97;;
64545;Laerm;50936;51.660;5.616;2023-02-15T07:47:53;63.60;54.32;72.57;;
64545;Laerm;50936;51.660;5.616;2023-02-15T07:50:20;63.63;52.76;71.07;;
64545;Laerm;50936;51.660;5.616;2023-02-15T07:52:47;64.55;55.03;73.92;;
64545;Laerm;50936;51.660;5.616;2023-02-15T07:55:14;64.39;55.22;76.64;;
64545;Laerm;50936;51.660;5.616;2023-02-15T07:57:46;63.77;53.55;77.09;;
64545;Laerm;50936;51.660;5.616;2023-02-15T08:00:16;66.34;52.80;81.97;;
64545;Laerm;50936;51.660;5.616;2023-02-15T08:02:51;63.48;51.07;86.87;;
64545;Laerm;50936;51.660;5.616;2023-02-15T08:05:44;63.57;52.82;83.49;;
64545;Laerm;50936;51.660;5.616;2023-02-15T08:08:14;63.66;52.34;78.78;;
64545;Laerm;50936;51.660;5.616;2023-02-15T08:13:48;61.93;49.16;80.37;;
64545;Laerm;50936;51.660;5.616;2023-02-15T08:16:36;62.36;52.24;74.77;;
64545;Laerm;50936;51.660;5.616;2023-02-15T08:19:14;64.78;52.84;79.08;;
64545;Laerm;50936;51.660;5.616;2023-02-15T08:21:48;68.98;54.72;94.01;;
64545;Laerm;50936;51.660;5.616;2023-02-15T08:24:20;64.31;53.38;73.68;;
64545;Laerm;50936;51.660;5.616;2023-02-15T08:26:48;62.62;52.44;70.52;;
64545;Laerm;50936;51.660;5.616;2023-02-15T08:29:18;65.47;51.51;77.68;;
64545;Laerm;50936;51.660;5.616;2023-02-15T08:31:46;64.05;53.63;78.74;;
64545;Laerm;50936;51.660;5.616;2023-02-15T08:34:17;64.35;53.32;71.74;;
64545;Laerm;50936;51.660;5.616;2023-02-15T08:36:45;65.23;51.77;82.65;;
64545;Laerm;50936;51.660;5.616;2023-02-15T08:39:14;62.34;52.02;71.65;;
64545;Laerm;50936;51.660;5.616;2023-02-15T08:41:45;64.79;52.74;79.55;;
64545;Laerm;50936;51.660;5.616;2023-02-15T08:44:15;64.79;51.18;80.90;;
64545;Laerm;50936;51.660;5.616;2023-02-15T08:46:45;66.03;51.74;79.78;;
64545;Laerm;50936;51.660;5.616;2023-02-15T08:49:17;64.19;53.26;76.52;;
64545;Laerm;50936;51.660;5.616;2023-02-15T08:51:46;62.83;51.15;74.00;;
64545;Laerm;50936;51.660;5.616;2023-02-15T08:54:17;64.74;52.59;78.42;;
64545;Laerm;50936;51.660;5.616;2023-02-15T08:56:44;64.91;53.74;79.51;;
64545;Laerm;50936;51.660;5.616;2023-02-15T08:59:18;64.05;53.33;78.53;;
64545;Laerm;50936;51.660;5.616;2023-02-15T09:01:48;66.51;51.95;87.66;;
64545;Laerm;50936;51.660;5.616;2023-02-15T09:04:15;63.34;53.17;80.66;;
64545;Laerm;50936;51.660;5.616;2023-02-15T09:06:45;66.45;55.47;80.97;;
64545;Laerm;50936;51.660;5.616;2023-02-15T09:09:16;63.44;54.48;71.04;;
64545;Laerm;50936;51.660;5.616;2023-02-15T09:11:46;63.29;52.64;73.06;;
64545;Laerm;50936;51.660;5.616;2023-02-15T09:14:19;63.50;52.62;71.90;;
64545;Laerm;50936;51.660;5.616;2023-02-15T09:16:52;63.76;55.28;77.76;;
64545;Laerm;50936;51.660;5.616;2023-02-15T09:19:22;63.66;54.15;71.78;;
64545;Laerm;50936;51.660;5.616;2023-02-15T09:21:49;62.30;52.90;74.12;;
64545;Laerm;50936;51.660;5.616;2023-02-15T09:24:18;64.14;52.51;70.57;;
64545;Laerm;50936;51.660;5.616;2023-02-15T09:26:47;62.50;50.68;71.63;;
64545;Laerm;50936;51.660;5.616;2023-02-15T09:29:17;63.94;53.74;74.27;;
64545;Laerm;50936;51.660;5.616;2023-02-15T09:31:48;63.37;52.77;71.79;;
64545;Laerm;50936;51.660;5.616;2023-02-15T09:34:20;62.83;52.88;79.55;;
64545;Laerm;50936;51.660;5.616;2023-02-15T09:36:49;63.16;54.55;72.82;;
64545;Laerm;50936;51.660;5.616;2023-02-15T09:39:24;64.55;51.80;81.48;;
64545;Laerm;50936;51.660;5.616;2023-02-15T09:50:19;63.26;52.19;81.04;;
64545;Laerm;50936;51.660;5.616;2023-02-15T09:56:31;63.85;52.00;83.22;;
64545;Laerm;50936;51.660;5.616;2023-02-15T10:05:19;65.27;57.51;85.08;;
64545;Laerm;50936;51.660;5.616;2023-02-15T10:08:26;64.72;59.47;81.04;;
64545;Laerm;50936;51.660;5.616;2023-02-15T10:11:15;64.72;52.24;80.33;;
64545;Laerm;50936;51.660;5.616;2023-02-15T10:20:17;61.66;48.70;70.24;;
64545;Laerm;50936;51.660;5.616;2023-02-15T10:23:02;64.48;52.67;77.89;;
64545;Laerm;50936;51.660;5.616;2023-02-15T10:25:56;64.26;53.90;71.60;;
64545;Laerm;50936;51.660;5.616;2023-02-15T10:28:45;65.09;55.21;76.19;;
64545;Laerm;50936;51.660;5.616;2023-02-15T10:34:40;63.46;52.17;77.89;;
64545;Laerm;50936;51.660;5.616;2023-02-15T10:37:37;64.53;54.52;72.73;;
64545;Laerm;50936;51.660;5.616;2023-02-15T10:43:13;63.43;50.11;78.36;;
64545;Laerm;50936;51.660;5.616;2023-02-15T10:52:06;62.39;51.99;79.90;;
64545;Laerm;50936;51.660;5.616;2023-02-15T11:06:14;65.85;54.77;82.21;;
64545;Laerm;50936;51.660;5.616;2023-02-15T11:08:48;62.78;53.99;76.40;;
64545;Laerm;50936;51.660;5.616;2023-02-15T11:11:32;63.59;54.95;73.73;;
64545;Laerm;50936;51.660;5.616;2023-02-15T11:14:50;64.07;50.26;79.60;;
64545;Laerm;50936;51.660;5.616;2023-02-15T11:17:43;63.56;49.46;74.98;;
64545;Laerm;50936;51.660;5.616;2023-02-15T11:22:57;64.04;54.33;80.96;;
64545;Laerm;50936;51.660;5.616;2023-02-15T11:25:35;64.51;51.28;73.50;;
64545;Laerm;50936;51.660;5.616;2023-02-15T11:28:06;63.77;53.30;72.07;;
64545;Laerm;50936;51.660;5.616;2023-02-15T11:30:51;64.75;54.59;82.67;;
64545;Laerm;50936;51.660;5.616;2023-02-15T11:33:27;63.31;49.93;78.22;;
64545;Laerm;50936;51.660;5.616;2023-02-15T11:36:06;63.74;51.55;76.47;;
64545;Laerm;50936;51.660;5.616;2023-02-15T11:38:36;60.98;47.42;74.23;;
64545;Laerm;50936;51.660;5.616;2023-02-15T11:41:11;63.75;47.76;77.10;;
64545;Laerm;50936;51.660;5.616;2023-02-15T11:43:49;62.71;51.26;72.66;;
64545;Laerm;50936;51.660;5.616;2023-02-15T11:46:19;64.73;55.70;77.13;;
64545;Laerm;50936;51.660;5.616;2023-02-15T11:48:48;63.36;51.95;76.49;;
64545;Laerm;50936;51.660;5.616;2023-02-15T11:51:21;64.16;52.77;76.26;;
64545;Laerm;50936;51.660;5.616;2023-02-15T11:53:51;63.35;53.01;73.37;;
64545;Laerm;50936;51.660;5.616;2023-02-15T11:56:22;63.97;52.35;79.11;;
64545;Laerm;50936;51.660;5.616;2023-02-15T11:59:04;65.55;53.35;79.27;;
64545;Laerm;50936;51.660;5.616;2023-02-15T12:01:43;68.82;52.36;98.32;;
64545;Laerm;50936;51.660;5.616;2023-02-15T12:04:31;65.31;51.22;86.68;;
64545;Laerm;50936;51.660;5.616;2023-02-15T12:07:18;63.61;52.06;80.43;;
64545;Laerm;50936;51.660;5.616;2023-02-15T12:12:40;65.37;48.84;84.00;;
64545;Laerm;50936;51.660;5.616;2023-02-15T12:15:10;69.76;56.66;93.02;;
64545;Laerm;50936;51.660;5.616;2023-02-15T12:17:55;64.48;56.05;75.53;;
64545;Laerm;50936;51.660;5.616;2023-02-15T12:20:31;63.57;53.83;75.44;;
64545;Laerm;50936;51.660;5.616;2023-02-15T12:23:14;72.33;51.73;104.11;;
64545;Laerm;50936;51.660;5.616;2023-02-15T12:25:56;69.38;54.97;99.65;;
64545;Laerm;50936;51.660;5.616;2023-02-15T12:28:36;64.73;50.85;79.07;;
64545;Laerm;50936;51.660;5.616;2023-02-15T12:31:32;65.21;53.84;75.55;;
64545;Laerm;50936;51.660;5.616;2023-02-15T12:34:12;63.40;55.07;79.73;;
64545;Laerm;50936;51.660;5.616;2023-02-15T12:36:50;62.87;51.77;75.61;;
64545;Laerm;50936;51.660;5.616;2023-02-15T12:39:31;63.81;49.45;77.24;;
64545;Laerm;50936;51.660;5.616;2023-02-15T12:42:14;63.07;53.82;72.11;;
64545;Laerm;50936;51.660;5.616;2023-02-15T12:45:08;64.52;51.86;78.62;;
64545;Laerm;50936;51.660;5.616;2023-02-15T12:47:46;63.08;52.52;74.72;;
64545;Laerm;50936;51.660;5.616;2023-02-15T12:50:23;66.90;53.73;93.81;;
64545;Laerm;50936;51.660;5.616;2023-02-15T12:53:06;64.47;57.51;74.27;;
64545;Laerm;50936;51.660;5.616;2023-02-15T12:55:34;63.94;54.58;76.85;;
64545;Laerm;50936;51.660;5.616;2023-02-15T12:58:21;64.24;53.47;77.91;;
64545;Laerm;50936;51.660;5.616;2023-02-15T13:01:12;64.69;52.60;75.33;;
64545;Laerm;50936;51.660;5.616;2023-02-15T13:04:06;63.84;52.86;77.01;;
64545;Laerm;50936;51.660;5.616;2023-02-15T13:06:49;67.29;54.10;83.27;;
64545;Laerm;50936;51.660;5.616;2023-02-15T13:09:33;64.78;54.51;85.06;;
64545;Laerm;50936;51.660;5.616;2023-02-15T13:12:25;67.41;53.45;83.11;;
64545;Laerm;50936;51.660;5.616;2023-02-15T13:14:55;64.23;55.15;74.33;;
64545;Laerm;50936;51.660;5.616;2023-02-15T13:17:32;63.77;53.32;86.14;;
64545;Laerm;50936;51.660;5.616;2023-02-15T13:20:06;63.82;55.45;76.51;;
64545;Laerm;50936;51.660;5.616;2023-02-15T13:22:43;63.10;52.95;74.79;;
64545;Laerm;50936;51.660;5.616;2023-02-15T13:25:28;66.51;52.78;92.65;;
64545;Laerm;50936;51.660;5.616;2023-02-15T13:28:02;66.35;55.71;84.04;;
64545;Laerm;50936;51.660;5.616;2023-02-15T13:30:35;62.32;52.67;71.52;;
64545;Laerm;50936;51.660;5.616;2023-02-15T13:33:12;64.01;52.06;78.55;;
64545;Laerm;50936;51.660;5.616;2023-02-15T13:36:27;63.67;50.89;76.62;;
64545;Laerm;50936;51.660;5.616;2023-02-15T13:53:01;64.39;55.65;77.12;;
64545;Laerm;50936;51.660;5.616;2023-02-15T13:55:57;64.20;51.77;90.89;;
64545;Laerm;50936;51.660;5.616;2023-02-15T14:11:04;65.70;52.54;78.97;;
64545;Laerm;50936;51.660;5.616;2023-02-15T14:14:01;62.75;51.95;70.08;;
64545;Laerm;50936;51.660;5.616;2023-02-15T14:16:42;64.31;52.71;77.89;;
64545;Laerm;50936;51.660;5.616;2023-02-15T14:19:46;63.65;52.79;78.32;;
64545;Laerm;50936;51.660;5.616;2023-02-15T14:22:42;65.90;54.18;91.56;;
64545;Laerm;50936;51.660;5.616;2023-02-15T14:25:48;63.62;54.72;75.63;;
64545;Laerm;50936;51.660;5.616;2023-02-15T14:29:08;63.34;51.91;72.78;;
64545;Laerm;50936;51.660;5.616;2023-02-15T14:31:46;63.16;53.07;80.08;;
64545;Laerm;50936;51.660;5.616;2023-02-15T14:34:34;64.01;52.98;75.31;;
64545;Laerm;50936;51.660;5.616;2023-02-15T14:37:06;63.70;49.30;86.19;;
64545;Laerm;50936;51.660;5.616;2023-02-15T14:42:58;62.58;50.81;71.96;;
64545;Laerm;50936;51.660;5.616;2023-02-15T14:45:48;63.13;50.54;75.99;;
64545;Laerm;50936;51.660;5.616;2023-02-15T14:48:44;64.58;55.54;87.22;;
64545;Laerm;50936;51.660;5.616;2023-02-15T14:56:45;63.68;56.10;74.13;;
64545;Laerm;50936;51.660;5.616;2023-02-15T14:59:17;64.06;53.30;78.45;;
64545;Laerm;50936;51.660;5.616;2023-02-15T15:01:57;65.14;52.51;82.78;;
64545;Laerm;50936;51.660;5.616;2023-02-15T15:04:33;64.82;54.78;78.28;;
64545;Laerm;50936;51.660;5.616;2023-02-15T15:07:09;66.66;52.98;88.73;;
64545;Laerm;50936;51.660;5.616;2023-02-15T15:09:41;66.82;54.50;86.14;;
64545;Laerm;50936;51.660;5.616;2023-02-15T15:12:40;65.41;54.16;75.99;;
64545;Laerm;50936;51.660;5.616;2023-02-15T15:15:15;64.71;54.03;78.89;;
64545;Laerm;50936;51.660;5.616;2023-02-15T15:18:07;65.05;53.08;80.67;;
64545;Laerm;50936;51.660;5.616;2023-02-15T15:25:52;66.41;55.13;78.45;;
64545;Laerm;50936;51.660;5.616;2023-02-15T15:40:42;63.67;53.46;81.10;;
64545;Laerm;50936;51.660;5.616;2023-02-15T15:43:34;77.47;53.51;89.63;;
64545;Laerm;50936;51.660;5.616;2023-02-15T15:49:19;63.83;54.45;78.25;;
64545;Laerm;50936;51.660;5.616;2023-02-15T15:51:47;65.43;53.60;79.29;;
64545;Laerm;50936;51.660;5.616;2023-02-15T15:54:25;65.25;57.26;73.11;;
64545;Laerm;50936;51.660;5.616;2023-02-15T15:56:58;62.83;53.63;71.43;;
64545;Laerm;50936;51.660;5.616;2023-02-15T15:59:30;64.12;54.90;77.83;;
64545;Laerm;50936;51.660;5.616;2023-02-15T16:02:12;65.52;55.00;94.68;;
64545;Laerm;50936;51.660;5.616;2023-02-15T16:04:46;65.63;55.44;77.39;;
64545;Laerm;50936;51.660;5.616;2023-02-15T16:07:25;64.16;55.31;78.75;;
64545;Laerm;50936;51.660;5.616;2023-02-15T16:09:59;64.83;53.13;82.11;;
64545;Laerm;50936;51.660;5.616;2023-02-15T16:12:38;69.21;52.98;95.92;;
64545;Laerm;50936;51.660;5.616;2023-02-15T16:17:46;64.60;53.59;75.48;;
64545;Laerm;50936;51.660;5.616;2023-02-15T16:20:28;64.21;55.12;78.44;;
64545;Laerm;50936;51.660;5.616;2023-02-15T16:25:50;63.69;52.26;78.99;;
64545;Laerm;50936;51.660;5.616;2023-02-15T16:28:21;65.31;54.06;81.72;;
64545;Laerm;50936;51.660;5.616;2023-02-15T16:31:07;65.03;54.97;81.80;;
64545;Laerm;50936;51.660;5.616;2023-02-15T16:33:41;65.14;53.60;85.41;;
64545;Laerm;50936;51.660;5.616;2023-02-15T16:36:24;64.29;52.97;75.14;;
64545;Laerm;50936;51.660;5.616;2023-02-15T16:41:25;63.47;53.52;75.59;;
64545;Laerm;50936;51.660;5.616;2023-02-15T16:44:09;62.34;51.55;77.60;;
64545;Laerm;50936;51.660;5.616;2023-02-15T16:46:47;64.27;54.89;74.53;;
64545;Laerm;50936;51.660;5.616;2023-02-15T16:49:26;63.07;51.02;76.61;;
64545;Laerm;50936;51.660;5.616;2023-02-15T16:52:02;66.02;53.83;92.41;;